Time;durP1;ratioP1;P1;durP2;ratioP2;P2;SDS_P1;SDS_P2;PMS_P1;PMS_P2;Temp;Humidity;BMP_temperature;BMP_pressure;BME280_temperature;BME280_humidity;BME280_pressure;Samples;Min_cycle;Max_cycle;Signal;HPM_P1;HPM_P2
2021/12/19 00:04:36;;;;;;;5.30;4.45;;;;;;;1.46;78.83;98915.03;1691206;83;21032;-38
2021/12/19 00:09:41;;;;;;;5.25;4.45;;;;;;;1.38;78.93;98893.89;1713137;83;21129;-38
2021/12/19 00:12:08;;;;;;;5.97;4.45;;;;;;;1.38;78.98;98889.89;1696641;83;21265;-38
2021/12/19 00:14:36;;;;;;;7.97;4.72;;;;;;;1.40;78.91;98889.04;1691652;83;21498;-38
2021/12/19 00:17:03;;;;;;;6.35;4.95;;;;;;;1.41;78.87;98887.13;1691209;83;21066;-38
2021/12/19 00:19:30;;;;;;;7.05;4.47;;;;;;;1.30;78.95;98870.63;1700086;83;21024;-38
2021/12/19 00:21:57;;;;;;;5.78;4.58;;;;;;;1.34;79.05;98878.25;1707117;83;21976;-38
2021/12/19 00:24:24;;;;;;;4.90;4.20;;;;;;;1.39;79.00;98871.44;1707361;83;21019;-38
2021/12/19 00:26:51;;;;;;;6.62;4.80;;;;;;;1.41;78.89;98868.44;1698677;83;21038;-38
2021/12/19 00:29:18;;;;;;;5.72;5.08;;;;;;;1.38;78.96;98873.86;1719857;83;21091;-38
2021/12/19 00:31:46;;;;;;;5.53;4.58;;;;;;;1.37;78.98;98870.16;1693660;83;21048;-38
2021/12/19 00:34:14;;;;;;;6.10;5.10;;;;;;;1.36;79.00;98863.23;1716045;82;21142;-39
2021/12/19 00:36:41;;;;;;;5.35;4.33;;;;;;;1.40;78.91;98868.22;1694203;83;20971;-38
2021/12/19 00:39:08;;;;;;;7.30;4.90;;;;;;;1.36;78.98;98863.23;1691112;84;20979;-38
2021/12/19 00:41:35;;;;;;;6.70;4.75;;;;;;;1.34;79.13;98850.76;1681881;84;21038;-38
2021/12/19 00:44:13;;;;;;;6.12;4.65;;;;;;;1.35;79.16;98838.44;1693810;84;21815;-39
2021/12/19 00:46:47;;;;;;;6.03;5.00;;;;;;;1.41;79.00;98827.04;1682113;84;21158;-38
2021/12/19 00:49:11;;;;;;;5.92;5.15;;;;;;;1.37;79.18;98827.43;1720755;82;21242;-38
2021/12/19 00:51:38;;;;;;;7.65;5.03;;;;;;;1.35;79.27;98820.30;1742847;82;21511;-38
2021/12/19 00:54:09;;;;;;;5.65;4.65;;;;;;;1.38;79.19;98824.45;1686078;84;21096;-38
2021/12/19 00:56:33;;;;;;;6.40;4.90;;;;;;;1.40;79.09;98816.14;1745457;82;20989;-38
2021/12/19 00:58:59;;;;;;;6.37;4.72;;;;;;;1.40;79.14;98806.80;1741343;82;21133;-38
2021/12/19 01:01:26;;;;;;;6.33;5.22;;;;;;;1.37;79.29;98802.06;1742476;82;21548;-39
2021/12/19 01:03:53;;;;;;;6.42;4.67;;;;;;;1.35;79.35;98795.72;1740304;82;20938;-38
2021/12/19 01:06:19;;;;;;;6.90;4.60;;;;;;;1.41;79.19;98801.67;1736828;82;20933;-38
2021/12/19 01:08:47;;;;;;;5.22;4.35;;;;;;;1.44;79.05;98801.06;1721164;82;21044;-38
2021/12/19 01:11:13;;;;;;;6.03;4.87;;;;;;;1.41;79.27;98798.99;1724030;82;21103;-39
2021/12/19 01:13:40;;;;;;;6.53;4.55;;;;;;;1.37;79.28;98790.83;1733907;82;20937;-39
2021/12/19 01:16:07;;;;;;;5.95;4.40;;;;;;;1.38;79.31;98783.06;1750639;82;21688;-39
2021/12/19 01:18:34;;;;;;;6.87;5.17;;;;;;;1.44;79.20;98789.04;1750949;82;21693;-38
2021/12/19 01:21:00;;;;;;;5.87;4.40;;;;;;;1.45;79.16;98779.94;1748205;81;21640;-38
2021/12/19 01:23:27;;;;;;;6.15;4.45;;;;;;;1.41;79.27;98773.63;1701418;83;21144;-38
2021/12/19 01:25:54;;;;;;;6.28;4.30;;;;;;;1.41;79.23;98781.63;1721187;82;21005;-38
2021/12/19 01:28:20;;;;;;;5.28;4.33;;;;;;;1.45;79.19;98775.38;1686076;85;21092;-39
2021/12/19 01:30:48;;;;;;;6.08;4.62;;;;;;;1.48;79.14;98760.60;1686364;83;20944;-39
2021/12/19 01:33:14;;;;;;;7.33;5.25;;;;;;;1.45;79.21;98757.23;1702610;83;21005;-38
2021/12/19 01:35:42;;;;;;;5.15;4.22;;;;;;;1.42;79.27;98749.83;1713498;83;21142;-38
2021/12/19 01:38:09;;;;;;;5.35;4.40;;;;;;;1.41;79.29;98740.23;1722757;82;21009;-38
2021/12/19 01:40:35;;;;;;;5.28;4.78;;;;;;;1.43;79.21;98732.71;1728300;82;21566;-39
2021/12/19 01:43:02;;;;;;;5.33;4.60;;;;;;;1.39;79.33;98717.88;1744109;82;21048;-39
2021/12/19 01:45:33;;;;;;;5.72;4.60;;;;;;;1.34;79.43;98705.22;1741856;82;21495;-39
2021/12/19 01:48:03;;;;;;;5.00;4.12;;;;;;;1.27;79.62;98703.02;1685413;84;21179;-38
2021/12/19 01:50:31;;;;;;;4.58;3.85;;;;;;;1.28;79.72;98696.03;1737746;82;21001;-39
2021/12/19 01:53:05;;;;;;;5.62;4.55;;;;;;;1.29;79.78;98688.27;1742567;82;20973;-38
2021/12/19 01:55:31;;;;;;;5.10;4.50;;;;;;;1.28;79.85;98699.25;1705115;83;21507;-38
2021/12/19 01:57:58;;;;;;;4.95;4.30;;;;;;;1.29;79.85;98692.81;1686286;84;21038;-38
2021/12/19 02:00:32;;;;;;;4.83;4.28;;;;;;;1.33;79.87;98691.63;1680485;84;21860;-38
2021/12/19 02:02:59;;;;;;;5.92;4.65;;;;;;;1.36;79.78;98669.08;1684666;84;21044;-38
2021/12/19 02:05:27;;;;;;;6.08;4.90;;;;;;;1.31;79.86;98660.69;1679772;84;21668;-38
2021/12/19 02:07:56;;;;;;;4.85;3.87;;;;;;;1.31;79.92;98658.56;1721218;81;20973;-39
2021/12/19 02:10:27;;;;;;;5.10;4.08;;;;;;;1.35;79.86;98653.39;1739801;82;21033;-38
2021/12/19 02:12:54;;;;;;;5.55;4.67;;;;;;;1.40;79.81;98650.56;1713707;82;21775;-39
2021/12/19 02:15:22;;;;;;;5.53;4.70;;;;;;;1.37;79.88;98637.83;1718871;82;21045;-39
2021/12/19 02:17:52;;;;;;;5.58;4.58;;;;;;;1.33;80.04;98655.58;1732116;82;20954;-38
2021/12/19 02:20:21;;;;;;;4.97;4.30;;;;;;;1.29;80.12;98629.52;1701588;83;20982;-39
2021/12/19 02:22:49;;;;;;;7.80;5.15;;;;;;;1.34;80.09;98617.89;1742375;82;21808;-38
2021/12/19 02:25:15;;;;;;;7.72;5.42;;;;;;;1.36;80.07;98620.23;1739707;82;21505;-38
2021/12/19 02:27:43;;;;;;;6.35;5.03;;;;;;;1.33;80.28;98612.31;1715307;82;21538;-39
2021/12/19 02:30:11;;;;;;;6.78;5.08;;;;;;;1.35;80.32;98606.66;1713428;82;21025;-38
2021/12/19 02:32:40;;;;;;;8.73;5.58;;;;;;;1.39;80.30;98612.39;1713760;82;21089;-38
2021/12/19 02:35:11;;;;;;;8.23;5.95;;;;;;;1.42;80.32;98598.94;1713496;82;21504;-38
2021/12/19 02:48:10;;;;;;;7.00;5.97;;;;;;;1.48;80.40;98585.66;1713833;82;21037;-40
2021/12/19 02:48:16;;;;;;;5.87;5.12;;;;;;;1.43;80.50;98579.15;1725551;82;21029;-39
2021/12/19 02:50:51;;;;;;;6.53;5.20;;;;;;;1.40;80.60;98577.91;1717636;82;21733;-39
2021/12/19 02:53:27;;;;;;;6.95;5.35;;;;;;;1.44;80.50;98558.81;1706922;83;21602;-39
2021/12/19 02:55:54;;;;;;;7.12;5.35;;;;;;;1.44;80.52;98557.47;1742373;81;21028;-39
2021/12/19 02:58:20;;;;;;;6.90;5.40;;;;;;;1.41;80.61;98546.63;1742485;82;21072;-39
2021/12/19 03:00:48;;;;;;;5.78;4.50;;;;;;;1.42;80.65;98554.88;1699143;84;21085;-40
2021/12/19 03:03:15;;;;;;;6.40;4.70;;;;;;;1.46;80.48;98542.44;1706728;84;21084;-39
2021/12/19 03:05:41;;;;;;;7.87;5.60;;;;;;;1.47;80.46;98533.33;1740941;81;21527;-39
2021/12/19 03:08:10;;;;;;;5.00;4.47;;;;;;;1.45;80.55;98527.55;1717739;82;21028;-40
2021/12/19 03:18:41;;;;;;;5.35;4.17;;;;;;;1.50;80.32;98491.31;1678849;85;20933;-39
2021/12/19 03:21:12;;;;;;;5.72;4.42;;;;;;;1.47;80.32;98486.05;1701828;84;21032;-40
2021/12/19 03:23:37;;;;;;;5.17;4.17;;;;;;;1.51;80.29;98488.85;1742796;81;21042;-40
2021/12/19 03:26:03;;;;;;;5.97;4.78;;;;;;;1.51;80.21;98481.63;1684613;84;21543;-40
2021/12/19 03:28:30;;;;;;;5.08;3.80;;;;;;;1.49;80.29;98483.06;1678620;84;21144;-40
2021/12/19 03:30:57;;;;;;;7.42;4.40;;;;;;;1.48;80.34;98480.16;1719583;82;21009;-39
2021/12/19 03:33:24;;;;;;;4.95;4.17;;;;;;;1.51;80.32;98466.15;1742326;82;20993;-40
2021/12/19 03:35:51;;;;;;;5.35;4.80;;;;;;;1.55;80.27;98459.84;1706775;84;21544;-40
2021/12/19 03:38:17;;;;;;;5.87;4.28;;;;;;;1.51;80.28;98450.91;1718682;81;21014;-40
2021/12/19 03:40:51;;;;;;;6.40;4.65;;;;;;;1.53;80.35;98446.59;1681065;82;21129;-39
2021/12/19 03:43:16;;;;;;;5.20;4.20;;;;;;;1.59;80.22;98439.42;1690218;84;21026;-39
2021/12/19 03:45:44;;;;;;;6.67;4.92;;;;;;;1.62;80.17;98444.11;1672719;84;20908;-40
2021/12/19 03:48:14;;;;;;;5.90;4.37;;;;;;;1.59;80.23;98438.08;1659614;85;21080;-39
2021/12/19 03:50:46;;;;;;;5.58;5.03;;;;;;;1.60;80.25;98422.81;1734746;82;21627;-40
2021/12/19 03:53:13;;;;;;;5.72;4.45;;;;;;;1.64;80.14;98421.08;1709895;82;21328;-40
2021/12/19 03:55:40;;;;;;;6.55;4.85;;;;;;;1.64;80.21;98410.40;1744126;82;21295;-39
2021/12/19 03:58:07;;;;;;;5.83;4.58;;;;;;;1.60;80.31;98410.23;1720976;82;21009;-40
2021/12/19 04:00:35;;;;;;;5.30;3.98;;;;;;;1.59;80.45;98413.25;1686067;83;21041;-40
2021/12/19 04:03:07;;;;;;;5.50;4.37;;;;;;;1.63;80.38;98416.84;1685994;83;21060;-40
2021/12/19 04:05:33;;;;;;;6.33;5.03;;;;;;;1.68;80.39;98401.96;1739403;82;21283;-40
2021/12/19 04:08:00;;;;;;;6.20;4.83;;;;;;;1.64;80.42;98398.38;1750578;82;21020;-39
2021/12/19 04:10:27;;;;;;;6.08;5.12;;;;;;;1.65;80.42;98396.70;1711508;83;21490;-40
2021/12/19 04:12:55;;;;;;;5.85;4.40;;;;;;;1.68;80.49;98395.28;1686160;83;21020;-40
2021/12/19 04:15:21;;;;;;;6.35;4.95;;;;;;;1.71;80.43;98372.70;1694405;83;21091;-40
2021/12/19 04:17:50;;;;;;;6.37;5.15;;;;;;;1.67;80.51;98369.12;1728071;82;21128;-40
2021/12/19 04:20:18;;;;;;;7.92;4.95;;;;;;;1.66;80.68;98361.42;1686271;83;21024;-39
2021/12/19 04:22:47;;;;;;;;;;;;;;;1.67;80.83;98356.31;1689470;83;21033;-40
2021/12/19 04:25:14;;;;;;;6.92;5.17;;;;;;;1.69;80.92;98356.20;1672629;84;20200;-40
2021/12/19 04:27:41;;;;;;;7.00;4.78;;;;;;;1.56;81.45;98355.12;1671364;84;21473;-40
2021/12/19 04:30:11;;;;;;;5.62;4.42;;;;;;;1.57;81.59;98354.02;1670787;84;21143;-39
2021/12/19 04:32:46;;;;;;;5.95;4.92;;;;;;;1.58;81.60;98345.69;1678212;84;20950;-40
2021/12/19 04:35:09;;;;;;;7.78;5.25;;;;;;;1.61;81.62;98340.23;1741754;82;21550;-40
2021/12/19 04:56:22;;;;;;;6.00;4.37;;;;;;;1.65;82.07;98300.52;1699470;84;21755;-39
2021/12/19 05:03:35;;;;;;;5.70;4.12;;;;;;;1.71;81.99;98292.55;1686919;84;21108;-39
2021/12/19 05:06:11;;;;;;;6.03;4.72;;;;;;;1.73;82.01;98285.00;1694084;84;21022;-40
2021/12/19 05:16:34;;;;;;;;;;;;;;;1.77;82.04;98257.06;1723280;81;21023;-40
2021/12/19 05:19:07;;;;;;;6.22;4.65;;;;;;;1.75;82.10;98253.92;1749460;81;20206;-40
2021/12/19 05:21:31;;;;;;;8.00;5.30;;;;;;;1.72;82.25;98245.23;1696997;83;21019;-39
2021/12/19 05:26:24;;;;;;;6.08;5.08;;;;;;;1.83;82.05;98245.06;1707763;83;21023;-39
2021/12/19 05:28:52;;;;;;;5.00;4.33;;;;;;;1.82;82.02;98235.48;1719157;82;21024;-39
2021/12/19 05:31:20;;;;;;;6.62;4.47;;;;;;;1.85;81.98;98223.34;1698349;83;21009;-40
2021/12/19 05:33:47;;;;;;;4.87;4.35;;;;;;;1.91;81.72;98227.38;1707467;83;21147;-40
2021/12/19 05:46:43;;;;;;;6.83;5.12;;;;;;;1.99;81.64;98198.43;1708327;83;21110;-40
2021/12/19 05:49:10;;;;;;;7.83;5.10;;;;;;;1.95;81.65;98194.31;1739676;82;20961;-40
2021/12/19 05:51:39;;;;;;;6.72;5.08;;;;;;;1.91;81.75;98177.38;1741076;82;20957;-40
2021/12/19 05:54:06;;;;;;;6.55;4.65;;;;;;;1.97;81.63;98169.38;1745973;82;21508;-40
2021/12/19 05:56:32;;;;;;;8.45;5.85;;;;;;;1.98;81.66;98158.14;1730275;82;21021;-40
2021/12/19 05:58:59;;;;;;;7.78;5.42;;;;;;;1.95;81.74;98156.89;1739200;82;21105;-40
2021/12/19 06:01:26;;;;;;;6.92;4.92;;;;;;;1.95;81.96;98149.43;1741795;82;21004;-40
2021/12/19 06:03:52;;;;;;;7.37;5.58;;;;;;;2.02;81.90;98150.45;1723133;82;21088;-40
2021/12/19 06:06:19;;;;;;;8.20;5.72;;;;;;;2.07;81.81;98141.44;1733252;82;21076;-39
2021/12/19 06:08:46;;;;;;;7.47;5.22;;;;;;;2.06;81.77;98143.33;1714747;83;21013;-40
2021/12/19 06:11:14;;;;;;;8.08;5.67;;;;;;;2.03;81.90;98143.23;1693043;83;21799;-40
2021/12/19 06:13:41;;;;;;;7.17;5.67;;;;;;;2.09;81.75;98134.63;1747894;82;20965;-40
2021/12/19 06:16:08;;;;;;;8.28;5.85;;;;;;;2.12;81.74;98139.89;1750790;82;21506;-39
2021/12/19 06:18:36;;;;;;;10.70;6.58;;;;;;;2.08;81.85;98119.70;1750677;81;20977;-40
2021/12/19 06:21:04;;;;;;;7.90;6.00;;;;;;;2.07;81.90;98130.20;1713918;83;21048;-39
2021/12/19 06:23:32;;;;;;;7.45;5.72;;;;;;;2.09;82.01;98105.78;1741199;81;21912;-39
2021/12/19 06:25:58;;;;;;;8.35;5.87;;;;;;;2.13;81.91;98086.06;1722225;81;21020;-40
2021/12/19 06:28:24;;;;;;;8.20;5.85;;;;;;;2.07;82.00;98090.09;1750797;82;21053;-40
2021/12/19 06:30:53;;;;;;;9.38;6.75;;;;;;;2.04;82.18;98083.28;1750735;82;21049;-39
2021/12/19 06:33:19;;;;;;;9.55;6.53;;;;;;;2.09;82.11;98087.07;1732539;82;21064;-40
2021/12/19 06:35:46;;;;;;;7.45;6.08;;;;;;;2.10;82.14;98087.30;1724695;82;21188;-40
2021/12/19 06:38:14;;;;;;;8.55;6.47;;;;;;;2.06;82.31;98081.84;1734636;81;20926;-40
2021/12/19 06:40:42;;;;;;;9.10;6.55;;;;;;;2.06;82.41;98078.39;1696103;83;21040;-40
2021/12/19 06:43:09;;;;;;;8.95;6.72;;;;;;;2.14;82.23;98072.14;1745046;82;21487;-40
2021/12/19 06:45:36;;;;;;;8.55;6.75;;;;;;;2.14;82.17;98068.13;1730794;82;21080;-40
2021/12/19 06:48:02;;;;;;;9.10;6.62;;;;;;;2.11;82.33;98065.59;1707517;83;21140;-39
2021/12/19 06:50:29;;;;;;;10.98;6.72;;;;;;;2.14;82.31;98075.59;1701634;84;21028;-39
2021/12/19 06:52:56;;;;;;;10.40;7.30;;;;;;;2.19;82.28;98066.02;1673001;83;20941;-40
2021/12/19 06:55:23;;;;;;;10.25;7.80;;;;;;;2.22;82.24;98065.14;1675393;84;21556;-40
2021/12/19 06:57:49;;;;;;;10.05;6.90;;;;;;;2.18;82.29;98064.45;1688419;83;21276;-40
2021/12/19 07:00:21;;;;;;;10.05;7.05;;;;;;;2.17;82.36;98084.31;1691488;84;21137;-40
2021/12/19 07:02:47;;;;;;;12.63;8.30;;;;;;;2.22;82.46;98063.80;1691639;84;21055;-40
2021/12/19 07:05:14;;;;;;;12.40;8.30;;;;;;;2.25;82.42;98065.80;1691829;84;21952;-39
2021/12/19 07:07:40;;;;;;;9.48;6.97;;;;;;;2.23;82.49;98060.02;1698538;84;21097;-39
2021/12/19 07:10:09;;;;;;;14.93;8.60;;;;;;;2.25;82.53;98067.13;1698976;84;21078;-40
2021/12/19 07:12:36;;;;;;;14.87;9.50;;;;;;;2.30;82.44;98070.91;1689850;84;21128;-39
2021/12/19 07:15:04;;;;;;;12.15;8.73;;;;;;;2.30;82.69;98075.70;1677069;85;21603;-40
2021/12/19 07:17:32;;;;;;;13.85;8.60;;;;;;;2.32;82.73;98072.16;1730065;82;21037;-40
2021/12/19 07:19:58;;;;;;;11.28;8.60;;;;;;;2.37;82.67;98059.86;1731210;81;21563;-40
2021/12/19 07:22:25;;;;;;;14.60;9.63;;;;;;;2.42;82.64;98052.19;1729153;82;21081;-39
2021/12/19 07:24:51;;;;;;;15.72;9.13;;;;;;;2.42;82.69;98042.83;1739983;81;21128;-39
2021/12/19 07:27:18;;;;;;;14.75;9.35;;;;;;;2.46;82.63;98029.00;1703668;83;21021;-39
2021/12/19 07:29:46;;;;;;;15.80;9.53;;;;;;;2.54;82.45;98043.56;1706879;83;20906;-40
2021/12/19 07:32:15;;;;;;;18.73;11.73;;;;;;;2.59;82.25;98023.27;1706650;83;21018;-40
2021/12/19 07:34:43;;;;;;;16.05;10.63;;;;;;;2.58;82.29;98012.90;1705565;83;21044;-40
2021/12/19 07:37:11;;;;;;;14.63;10.38;;;;;;;2.57;82.27;97988.59;1701734;83;21132;-40
2021/12/19 07:39:41;;;;;;;17.50;11.80;;;;;;;2.61;82.22;97989.50;1699619;83;21563;-40
2021/12/19 07:42:09;;;;;;;17.02;11.05;;;;;;;2.70;82.13;97994.14;1694896;83;20993;-40
2021/12/19 07:44:36;;;;;;;;;;;;;;;2.69;82.23;97992.58;1704330;83;20950;-40
2021/12/19 07:47:06;;;;;;;19.42;12.10;;;;;;;2.72;82.25;97997.23;1706686;83;20169;-40
2021/12/19 07:49:34;;;;;;;21.17;12.98;;;;;;;2.74;82.24;97981.63;1697433;84;21686;-40
2021/12/19 07:52:01;;;;;;;20.35;12.55;;;;;;;2.81;82.16;97971.11;1692328;84;20957;-40
2021/12/19 07:54:28;;;;;;;18.20;11.83;;;;;;;2.82;82.15;97976.68;1702607;84;21580;-40
2021/12/19 07:56:54;;;;;;;21.10;13.32;;;;;;;2.83;81.98;97974.23;1693635;84;21096;-40
2021/12/19 08:01:58;;;;;;;23.20;13.70;;;;;;;2.93;81.93;97976.41;1811918;78;22642;-39
2021/12/19 08:04:25;;;;;;;22.60;13.68;;;;;;;2.80;82.29;97974.14;1789523;78;21469;-39
2021/12/19 08:06:51;;;;;;;22.15;12.47;;;;;;;2.84;82.34;97971.78;1779238;79;21204;-40
2021/12/19 08:09:37;;;;;;;21.30;13.85;;;;;;;2.91;82.24;97966.59;1798835;79;20937;-39
2021/12/19 08:11:56;;;;;;;24.50;14.90;;;;;;;2.95;82.26;97970.14;1800426;79;20992;-39
2021/12/19 08:14:23;;;;;;;21.00;12.93;;;;;;;2.94;82.25;97965.93;1802870;79;20917;-39
2021/12/19 08:16:49;;;;;;;23.12;14.75;;;;;;;2.99;82.16;97955.53;1803014;79;20922;-39
2021/12/19 08:19:16;;;;;;;24.40;14.80;;;;;;;3.02;82.13;97946.24;1802819;79;21106;-39
2021/12/19 08:21:42;;;;;;;24.67;14.35;;;;;;;2.97;82.21;97946.50;1802413;78;21456;-39
2021/12/19 08:24:11;;;;;;;23.30;14.30;;;;;;;2.99;82.34;97956.31;1802392;79;22126;-39
2021/12/19 08:26:39;;;;;;;23.30;14.40;;;;;;;3.04;82.22;97946.69;1815238;78;20994;-39
2021/12/19 08:29:06;;;;;;;23.12;14.23;;;;;;;3.08;82.13;97949.45;1759784;81;20954;-39
2021/12/19 08:31:34;;;;;;;21.20;13.25;;;;;;;3.06;82.15;97942.31;1721301;83;21538;-40
2021/12/19 08:34:01;;;;;;;18.70;12.63;;;;;;;3.06;81.95;97924.34;1721939;82;21664;-39
2021/12/19 08:36:28;;;;;;;20.52;12.43;;;;;;;3.09;81.65;97931.48;1726057;82;21031;-39
2021/12/19 08:38:54;;;;;;;17.10;10.32;;;;;;;3.10;81.44;97925.02;1726330;82;21025;-39
2021/12/19 08:41:21;;;;;;;15.60;10.68;;;;;;;3.06;81.31;97919.00;1732504;82;21039;-39
2021/12/19 08:43:48;;;;;;;17.80;10.88;;;;;;;3.05;81.09;97911.30;1723523;82;21137;-39
2021/12/19 08:46:15;;;;;;;14.50;9.45;;;;;;;3.10;80.77;97916.98;1726816;82;20942;-39
2021/12/19 08:48:42;;;;;;;14.07;8.40;;;;;;;3.03;80.65;97906.31;1743011;81;20970;-39
2021/12/19 08:51:09;;;;;;;11.35;7.75;;;;;;;3.02;80.42;97908.77;1726530;82;21066;-39
2021/12/19 08:53:35;;;;;;;12.55;8.13;;;;;;;2.99;79.76;97892.06;1713291;83;21113;-39
2021/12/19 08:56:04;;;;;;;13.65;8.35;;;;;;;2.97;79.44;97905.00;1723396;80;21512;-39
2021/12/19 08:58:30;;;;;;;12.23;7.78;;;;;;;2.86;79.29;97893.24;1727214;82;21644;-39
2021/12/19 09:01:01;;;;;;;10.08;6.92;;;;;;;2.79;79.28;97901.66;1738335;82;21006;-39
2021/12/19 09:03:31;;;;;;;9.53;5.65;;;;;;;2.75;79.20;97892.77;1732457;82;21101;-39
2021/12/19 09:05:58;;;;;;;11.30;6.83;;;;;;;2.72;79.36;97894.22;1732450;82;21018;-39
2021/12/19 09:08:25;;;;;;;11.60;6.22;;;;;;;2.61;79.73;97876.55;1753544;81;21103;-39
2021/12/19 09:10:54;;;;;;;9.30;6.20;;;;;;;2.61;80.11;97870.45;1739044;80;21060;-39
2021/12/19 09:13:21;;;;;;;10.30;6.60;;;;;;;2.63;80.22;97864.95;1720247;81;21036;-39
2021/12/19 09:15:47;;;;;;;10.55;6.37;;;;;;;2.64;80.40;97863.06;1713023;82;21547;-39
2021/12/19 09:18:15;;;;;;;12.65;6.95;;;;;;;2.65;80.62;97857.15;1713006;82;20992;-39
2021/12/19 09:20:42;;;;;;;10.70;5.65;;;;;;;2.67;80.84;97843.63;1724854;80;21963;-39
2021/12/19 09:23:11;;;;;;;9.88;6.22;;;;;;;2.71;81.00;97839.14;1739070;82;20976;-39
2021/12/19 09:25:38;;;;;;;9.08;5.45;;;;;;;2.73;81.13;97827.55;1718422;82;21219;-39
2021/12/19 09:28:04;;;;;;;8.85;5.75;;;;;;;2.74;81.28;97819.74;1741669;82;20973;-39
2021/12/19 09:30:31;;;;;;;10.35;5.92;;;;;;;2.79;81.47;97807.44;1735749;82;21040;-39
2021/12/19 09:33:00;;;;;;;9.30;6.12;;;;;;;2.87;81.49;97809.72;1716134;82;20978;-39
2021/12/19 09:35:27;;;;;;;7.85;5.55;;;;;;;2.91;81.62;97801.20;1712764;83;21001;-39
2021/12/19 09:37:54;;;;;;;7.47;5.45;;;;;;;2.94;81.75;97793.84;1715184;82;20981;-39
2021/12/19 09:40:25;;;;;;;8.73;5.87;;;;;;;3.00;81.84;97795.13;1713051;82;21045;-39
2021/12/19 09:42:59;;;;;;;9.08;5.47;;;;;;;3.10;81.65;97783.11;1713889;82;21048;-39
2021/12/19 09:45:20;;;;;;;8.30;5.35;;;;;;;3.11;81.66;97775.27;1740248;82;21143;-39
2021/12/19 09:47:48;;;;;;;8.05;5.30;;;;;;;3.13;81.71;97767.68;1718045;82;21613;-39
2021/12/19 09:50:14;;;;;;;7.15;4.40;;;;;;;3.19;81.51;97766.30;1715307;82;20985;-40
2021/12/19 09:52:41;;;;;;;7.17;4.58;;;;;;;3.24;81.41;97752.08;1726697;82;21024;-40
2021/12/19 09:55:09;;;;;;;8.08;4.47;;;;;;;3.24;81.44;97749.95;1729701;82;21100;-39
2021/12/19 09:57:36;;;;;;;6.17;4.25;;;;;;;3.23;81.59;97755.88;1725731;82;21171;-39
2021/12/19 10:00:05;;;;;;;7.08;4.30;;;;;;;3.31;81.45;97746.08;1727433;81;21002;-39
2021/12/19 10:02:34;;;;;;;6.97;4.17;;;;;;;3.37;81.41;97746.02;1712244;82;21020;-40
2021/12/19 10:05:17;;;;;;;7.47;4.22;;;;;;;3.36;81.35;97737.20;1764692;80;21535;-39
2021/12/19 10:07:55;;;;;;;7.25;5.45;;;;;;;3.37;81.31;97744.68;1781452;80;20906;-39
2021/12/19 10:10:46;;;;;;;11.15;6.97;;;;;;;3.45;81.19;97738.33;1790857;79;21145;-39
2021/12/19 10:13:14;;;;;;;6.03;4.25;;;;;;;3.47;81.20;97728.05;1790685;79;20934;-39
2021/12/19 10:15:43;;;;;;;6.62;4.25;;;;;;;3.48;81.14;97718.89;1790998;80;21559;-39
2021/12/19 10:18:15;;;;;;;9.03;6.33;;;;;;;3.56;81.07;97724.59;1776538;79;21520;-40
2021/12/19 10:20:49;;;;;;;6.05;4.50;;;;;;;3.62;81.03;97709.02;1790125;80;20965;-39
2021/12/19 10:23:25;;;;;;;7.00;4.58;;;;;;;3.61;81.04;97704.78;1790917;80;21110;-39
2021/12/19 10:26:09;;;;;;;6.87;4.60;;;;;;;3.60;81.00;97701.32;1790751;79;21020;-40
2021/12/19 10:28:57;;;;;;;6.55;4.45;;;;;;;3.68;80.86;97704.34;1790089;80;21013;-40
2021/12/19 10:31:25;;;;;;;6.20;4.40;;;;;;;3.68;80.59;97692.28;1780546;80;20967;-39
2021/12/19 10:33:54;;;;;;;7.27;4.20;;;;;;;3.69;80.69;97693.06;1786332;79;21072;-40
2021/12/19 10:36:20;;;;;;;5.75;4.00;;;;;;;3.75;80.71;97687.06;1767715;80;21216;-39
2021/12/19 10:38:51;;;;;;;6.15;4.33;;;;;;;3.79;80.58;97671.82;1775029;80;21480;-39
2021/12/19 10:41:30;;;;;;;5.95;3.80;;;;;;;3.75;80.36;97665.62;1775100;80;21009;-40
2021/12/19 10:44:05;;;;;;;6.97;4.37;;;;;;;3.76;80.59;97657.80;1789954;79;21076;-39
2021/12/19 10:46:40;;;;;;;6.03;3.75;;;;;;;3.83;80.51;97640.48;1785301;79;21016;-40
2021/12/19 10:49:24;;;;;;;6.08;4.40;;;;;;;3.88;80.21;97636.73;1789064;79;21058;-39
2021/12/19 10:51:51;;;;;;;6.42;3.75;;;;;;;3.84;80.09;97634.00;1796034;79;21055;-39
2021/12/19 10:54:17;;;;;;;6.33;4.10;;;;;;;3.84;80.09;97638.02;1787222;79;21792;-39
2021/12/19 10:56:44;;;;;;;5.53;3.90;;;;;;;3.91;79.93;97624.75;1780439;79;21057;-39
2021/12/19 10:59:15;;;;;;;5.67;3.47;;;;;;;3.96;79.84;97622.91;1788316;79;21017;-39
2021/12/19 11:01:46;;;;;;;5.65;3.83;;;;;;;3.96;79.75;97620.22;1727116;82;21589;-39
2021/12/19 11:04:22;;;;;;;4.97;3.27;;;;;;;3.95;79.38;97616.77;1715083;82;21035;-39
2021/12/19 11:06:58;;;;;;;6.35;3.65;;;;;;;4.00;79.28;97621.05;1726191;83;20958;-39
2021/12/19 11:09:30;;;;;;;5.87;3.40;;;;;;;3.99;79.12;97619.49;1719456;82;20971;-39
2021/12/19 11:12:10;;;;;;;5.72;3.40;;;;;;;4.00;79.22;97611.67;1729055;82;21361;-39
2021/12/19 11:14:47;;;;;;;5.53;3.72;;;;;;;4.05;79.25;97608.13;1767735;81;21106;-39
2021/12/19 11:17:20;;;;;;;6.37;3.75;;;;;;;4.06;78.72;97599.52;1795449;79;20957;-39
2021/12/19 11:19:53;;;;;;;4.70;3.00;;;;;;;4.02;78.71;97591.39;1799248;79;21456;-39
2021/12/19 11:22:26;;;;;;;5.05;3.22;;;;;;;4.02;78.62;97582.60;1788588;78;21036;-39
2021/12/19 11:24:59;;;;;;;3.75;2.67;;;;;;;4.07;78.49;97585.73;1783496;79;20994;-39
2021/12/19 11:27:27;;;;;;;3.58;2.55;;;;;;;4.07;78.26;97570.20;1791322;79;21228;-40
2021/12/19 11:29:55;;;;;;;3.72;2.55;;;;;;;4.06;78.27;97574.05;1800646;79;21518;-40
2021/12/19 11:32:27;;;;;;;4.62;2.67;;;;;;;4.09;78.24;97565.27;1800467;79;21009;-40
2021/12/19 11:35:11;;;;;;;3.10;2.45;;;;;;;4.12;78.12;97571.23;1722183;82;21072;-39
2021/12/19 11:37:43;;;;;;;3.95;2.25;;;;;;;4.12;78.05;97568.56;1712902;83;21597;-40
2021/12/19 11:40:15;;;;;;;3.10;2.35;;;;;;;4.06;77.92;97562.75;1728201;82;21146;-39
2021/12/19 11:42:42;;;;;;;2.85;2.27;;;;;;;4.07;77.85;97561.59;1712127;82;21240;-39
2021/12/19 11:45:33;;;;;;;2.75;2.17;;;;;;;4.12;77.78;97561.86;1736915;82;20997;-39
2021/12/19 11:48:13;;;;;;;4.05;2.10;;;;;;;4.09;77.80;97558.56;1725710;82;21033;-40
2021/12/19 11:50:55;;;;;;;1.92;1.52;;;;;;;4.06;77.72;97556.61;1722706;82;21029;-41
2021/12/19 11:53:28;;;;;;;2.60;2.00;;;;;;;4.09;77.62;97556.66;1721425;82;21137;-40
2021/12/19 11:56:10;;;;;;;2.35;1.90;;;;;;;4.11;77.73;97561.11;1713064;82;21041;-40
2021/12/19 11:58:50;;;;;;;1.70;1.20;;;;;;;4.09;77.51;97550.52;1685395;83;21048;-40
2021/12/19 12:01:28;;;;;;;2.40;1.70;;;;;;;4.15;77.37;97541.04;1724662;81;22739;-40
2021/12/19 12:04:13;;;;;;;2.17;1.70;;;;;;;4.23;77.40;97533.30;1750505;81;21483;-40
2021/12/19 12:06:42;;;;;;;2.75;1.52;;;;;;;4.21;77.05;97542.28;1741413;81;22007;-40
2021/12/19 12:09:23;;;;;;;2.22;1.40;;;;;;;4.20;77.27;97543.41;1737492;82;21515;-40
2021/12/19 12:12:13;;;;;;;2.00;1.40;;;;;;;4.23;77.29;97545.36;1737314;82;21289;-40
2021/12/19 12:14:51;;;;;;;2.05;1.50;;;;;;;4.24;77.37;97546.92;1735729;82;21045;-40
2021/12/19 12:17:22;;;;;;;1.98;1.20;;;;;;;4.19;77.32;97545.88;1736371;82;21089;-40
2021/12/19 12:19:55;;;;;;;2.30;1.35;;;;;;;4.16;77.33;97552.76;1737287;82;21145;-40
2021/12/19 12:22:37;;;;;;;1.57;1.20;;;;;;;4.21;77.33;97548.98;1737140;82;21040;-40
2021/12/19 12:25:31;;;;;;;3.00;1.30;;;;;;;4.20;77.00;97550.89;1737296;82;21295;-40
2021/12/19 12:28:05;;;;;;;4.83;1.07;;;;;;;4.16;77.37;97556.78;1723032;82;20976;-40
2021/12/19 12:30:45;;;;;;;2.08;1.35;;;;;;;4.14;77.45;97544.84;1722210;83;21052;-40
2021/12/19 12:33:18;;;;;;;1.30;1.10;;;;;;;4.16;77.52;97549.30;1736286;81;21564;-40
2021/12/19 12:35:49;;;;;;;3.05;1.37;;;;;;;4.15;77.48;97545.06;1708088;82;21022;-40
2021/12/19 12:38:16;;;;;;;1.47;1.05;;;;;;;4.10;77.50;97537.33;1718002;83;21076;-40
2021/12/19 12:43:23;;;;;;;;;;;;;;;4.10;77.54;97530.63;1717579;83;21054;-40
2021/12/19 12:46:06;;;;;;;1.45;1.20;;;;;;;4.09;77.44;97537.11;1728256;82;21089;-40
2021/12/19 12:48:56;;;;;;;1.25;0.95;;;;;;;3.94;78.01;97542.27;1738999;81;21094;-40
2021/12/19 12:51:37;;;;;;;1.47;1.07;;;;;;;3.96;78.09;97531.19;1734305;81;21542;-40
2021/12/19 12:54:17;;;;;;;1.25;1.00;;;;;;;4.03;77.98;97541.23;1751532;81;21004;-40
2021/12/19 12:56:48;;;;;;;;;;;;;;;4.03;77.78;97539.89;1754137;81;21041;-40
2021/12/19 12:59:19;;;;;;;;;;;;;;;4.00;77.97;97544.64;1754145;81;21121;-40
2021/12/19 13:02:11;;;;;;;1.57;1.00;;;;;;;3.96;78.31;97548.61;1750733;81;20475;-40
2021/12/19 13:04:36;;;;;;;1.32;1.00;;;;;;;3.95;78.35;97544.38;1741891;82;21582;-40